createdAt,value
2018-04-16T00:00:46.336Z,13.95
2018-04-16T00:01:46.301Z,13.95
2018-04-16T00:02:46.290Z,13.97
2018-04-16T00:03:46.292Z,13.92
2018-04-16T00:04:46.278Z,13.84
2018-04-16T00:05:46.283Z,13.82
2018-04-16T00:06:46.290Z,13.88
2018-04-16T00:07:46.329Z,13.78
2018-04-16T00:08:46.306Z,13.71
2018-04-16T00:09:46.293Z,13.75
2018-04-16T00:10:46.298Z,13.79
2018-04-16T00:11:46.301Z,13.78
2018-04-16T00:12:46.316Z,13.70
2018-04-16T00:13:46.326Z,13.73
2018-04-16T00:14:46.298Z,13.73
2018-04-16T00:15:46.303Z,13.75
2018-04-16T00:16:46.325Z,13.71
2018-04-16T00:17:46.313Z,13.73
2018-04-16T00:18:46.318Z,13.81
2018-04-16T00:19:46.306Z,13.73
2018-04-16T00:20:46.317Z,13.79
2018-04-16T00:21:46.302Z,13.73
2018-04-16T00:22:46.311Z,13.78
2018-04-16T00:23:46.323Z,13.66
2018-04-16T00:24:46.317Z,13.64
2018-04-16T00:25:47.078Z,13.64
2018-04-16T00:26:48.149Z,13.69
2018-04-16T00:27:46.356Z,13.64
2018-04-16T00:28:46.340Z,13.59
2018-04-16T00:29:46.352Z,13.62
2018-04-16T00:30:46.336Z,13.59
2018-04-16T00:31:46.346Z,13.46
2018-04-16T00:32:46.363Z,13.42
2018-04-16T00:33:46.361Z,13.57
2018-04-16T00:34:46.370Z,13.62
2018-04-16T00:35:48.137Z,13.55
2018-04-16T00:36:46.389Z,13.54
2018-04-16T00:37:46.354Z,13.62
2018-04-16T00:38:46.403Z,13.64
2018-04-16T00:39:46.359Z,13.54
2018-04-16T00:40:46.375Z,13.54
2018-04-16T00:41:46.378Z,13.52
2018-04-16T00:42:46.374Z,13.57
2018-04-16T00:43:46.369Z,13.57
2018-04-16T00:44:46.375Z,13.49
2018-04-16T00:45:46.391Z,13.52
2018-04-16T00:46:46.390Z,13.54
2018-04-16T00:47:46.378Z,13.52
2018-04-16T00:48:46.388Z,13.51
2018-04-16T00:49:46.374Z,13.52
2018-04-16T00:50:46.387Z,13.45
2018-04-16T00:51:46.398Z,13.49
2018-04-16T00:52:46.394Z,13.46
2018-04-16T00:53:46.393Z,13.49
2018-04-16T00:54:48.160Z,13.52
2018-04-16T00:55:46.428Z,13.49
2018-04-16T00:56:46.433Z,13.44
2018-04-16T00:57:46.472Z,13.44
2018-04-16T00:58:46.412Z,13.42
2018-04-16T00:59:46.400Z,13.45
2018-04-16T01:00:46.458Z,13.44
2018-04-16T01:01:47.086Z,13.46
2018-04-16T01:02:46.410Z,13.51
2018-04-16T01:03:46.427Z,13.45
2018-04-16T01:04:46.432Z,13.45
2018-04-16T01:05:46.506Z,13.46
2018-04-16T01:06:47.088Z,13.38
2018-04-16T01:07:46.429Z,13.39
2018-04-16T01:08:46.437Z,13.39
2018-04-16T01:09:46.433Z,13.33
2018-04-16T01:10:46.445Z,13.33
2018-04-16T01:11:46.427Z,13.41
2018-04-16T01:12:46.450Z,13.33
2018-04-16T01:13:46.463Z,13.38
2018-04-16T01:14:48.155Z,13.36
2018-04-16T01:15:46.451Z,13.38
2018-04-16T01:16:46.445Z,13.30
2018-04-16T01:17:46.455Z,13.32
2018-04-16T01:18:46.449Z,13.30
2018-04-16T01:19:46.545Z,13.23
2018-04-16T01:20:46.465Z,13.22
2018-04-16T01:21:46.488Z,13.14
2018-04-16T01:22:46.471Z,13.20
2018-04-16T01:23:46.500Z,13.23
2018-04-16T01:24:46.463Z,13.15
2018-04-16T01:25:46.480Z,13.08
2018-04-16T01:26:46.459Z,13.05
2018-04-16T01:27:46.499Z,13.01
2018-04-16T01:28:46.521Z,13.05
2018-04-16T01:29:46.477Z,13.12
2018-04-16T01:30:46.479Z,13.07
2018-04-16T01:31:46.516Z,13.05
2018-04-16T01:32:46.486Z,13.10
2018-04-16T01:33:46.496Z,13.05
2018-04-16T01:34:46.505Z,13.07
2018-04-16T01:35:46.508Z,13.08
2018-04-16T01:36:46.500Z,13.04
2018-04-16T01:37:46.519Z,13.05
2018-04-16T01:38:46.518Z,13.05
2018-04-16T01:39:48.166Z,12.93
2018-04-16T01:40:46.503Z,12.90
2018-04-16T01:41:46.515Z,13.05
2018-04-16T01:42:46.528Z,13.00
2018-04-16T01:43:46.536Z,12.95
2018-04-16T01:44:46.536Z,12.93
2018-04-16T01:45:46.532Z,12.90
2018-04-16T01:46:46.526Z,12.92
2018-04-16T01:47:46.536Z,12.89
2018-04-16T01:48:46.515Z,12.77
2018-04-16T01:49:46.538Z,12.82
2018-04-16T01:50:46.546Z,12.77
2018-04-16T01:51:46.535Z,12.86
2018-04-16T01:52:46.549Z,12.77
2018-04-16T01:53:46.576Z,12.70
2018-04-16T01:54:46.554Z,12.85
2018-04-16T01:55:46.572Z,12.71
2018-04-16T01:56:46.557Z,12.79
2018-04-16T01:57:46.559Z,12.77
2018-04-16T01:58:46.561Z,12.74
2018-04-16T01:59:46.551Z,12.89
2018-04-16T02:00:46.603Z,12.78
2018-04-16T02:01:46.548Z,12.83
2018-04-16T02:02:46.587Z,12.85
2018-04-16T02:03:46.597Z,12.85
2018-04-16T02:04:46.557Z,12.89
2018-04-16T02:05:50.104Z,12.92
2018-04-16T02:06:48.177Z,12.85
2018-04-16T02:07:46.569Z,12.77
2018-04-16T02:08:46.560Z,12.86
2018-04-16T02:09:46.579Z,12.83
2018-04-16T02:10:46.599Z,12.96
2018-04-16T02:11:46.572Z,12.87
2018-04-16T02:12:46.584Z,12.74
2018-04-16T02:13:46.586Z,12.78
2018-04-16T02:14:46.598Z,12.70
2018-04-16T02:15:46.605Z,12.74
2018-04-16T02:16:46.595Z,12.74
2018-04-16T02:17:46.606Z,12.75
2018-04-16T02:18:46.583Z,12.71
2018-04-16T02:19:46.608Z,12.68
2018-04-16T02:20:46.590Z,12.59
2018-04-16T02:21:46.598Z,12.59
2018-04-16T02:22:46.603Z,12.47
2018-04-16T02:23:46.595Z,12.52
2018-04-16T02:24:46.606Z,12.49
2018-04-16T02:25:46.602Z,12.56
2018-04-16T02:26:46.629Z,12.42
2018-04-16T02:27:46.612Z,12.50
2018-04-16T02:28:46.614Z,12.52
2018-04-16T02:29:46.636Z,12.50
2018-04-16T02:30:46.616Z,12.41
2018-04-16T02:31:46.622Z,12.39
2018-04-16T02:32:46.614Z,12.42
2018-04-16T02:33:46.626Z,12.42
2018-04-16T02:34:46.629Z,12.31
2018-04-16T02:35:46.646Z,12.39
2018-04-16T02:36:46.646Z,12.39
2018-04-16T02:37:46.640Z,12.37
2018-04-16T02:38:49.181Z,12.45
2018-04-16T02:39:46.787Z,12.42
2018-04-16T02:45:20.559Z,12.29
2018-04-16T02:46:22.371Z,12.42
2018-04-16T02:47:23.375Z,12.35
2018-04-16T02:50:25.596Z,12.38
2018-04-16T02:51:21.291Z,12.37
2018-04-16T02:52:21.989Z,12.35
2018-04-16T02:53:22.643Z,12.38
2018-04-16T02:54:22.531Z,12.35
2018-04-16T02:55:23.976Z,12.31
2018-04-16T02:56:23.638Z,12.32
2018-04-16T02:57:23.703Z,12.29
2018-04-16T02:58:22.549Z,12.35
2018-04-16T02:59:23.252Z,12.35
2018-04-16T03:00:23.014Z,12.32
2018-04-16T03:01:20.342Z,12.24
2018-04-16T03:02:26.594Z,12.24
2018-04-16T03:03:21.596Z,12.32
2018-04-16T03:04:22.506Z,12.29
2018-04-16T03:05:21.978Z,12.23
2018-04-16T03:06:20.961Z,12.28
2018-04-16T03:07:24.297Z,12.23
2018-04-16T03:08:23.109Z,12.20
2018-04-16T03:09:22.263Z,12.20
2018-04-16T03:10:22.343Z,12.19
2018-04-16T03:11:20.916Z,12.28
2018-04-16T03:12:21.858Z,12.28
2018-04-16T03:13:21.261Z,12.28
2018-04-16T03:14:23.409Z,12.23
2018-04-16T03:15:22.754Z,12.29
2018-04-16T03:16:23.236Z,12.20
2018-04-16T03:17:19.586Z,12.21
2018-04-16T03:18:20.284Z,12.28
2018-04-16T03:19:21.091Z,12.16
2018-04-16T03:20:22.898Z,12.21
2018-04-16T03:21:20.565Z,12.21
2018-04-16T03:22:21.506Z,12.19
2018-04-16T03:23:26.105Z,12.23
2018-04-16T03:24:23.678Z,12.14
2018-04-16T03:25:23.001Z,12.10
2018-04-16T03:26:22.631Z,12.12
2018-04-16T03:27:22.201Z,12.04
2018-04-16T03:28:20.101Z,11.96
2018-04-16T03:29:19.456Z,11.85
2018-04-16T03:30:19.719Z,11.91
2018-04-16T03:31:20.506Z,11.85
2018-04-16T03:32:20.023Z,11.90
2018-04-16T03:33:22.175Z,11.88
2018-04-16T03:34:23.540Z,11.96
2018-04-16T03:35:23.982Z,11.91
2018-04-16T03:36:24.842Z,11.78
2018-04-16T03:37:21.551Z,11.79
2018-04-16T03:38:22.393Z,11.90
2018-04-16T03:39:20.845Z,11.90
2018-04-16T03:40:21.978Z,11.82
2018-04-16T03:41:22.226Z,11.80
2018-04-16T03:42:23.043Z,11.91
2018-04-16T03:43:20.564Z,11.88
2018-04-16T03:44:22.239Z,12.02
2018-04-16T03:45:21.435Z,11.90
2018-04-16T03:46:25.885Z,11.82
2018-04-16T03:47:24.450Z,11.91
2018-04-16T03:48:22.993Z,11.86
2018-04-16T03:49:23.894Z,11.88
2018-04-16T03:50:25.179Z,11.88
2018-04-16T03:51:23.519Z,11.86
2018-04-16T03:52:22.921Z,11.78
2018-04-16T03:53:23.701Z,11.80
2018-04-16T03:54:23.254Z,11.78
2018-04-16T03:55:23.107Z,11.75
2018-04-16T03:56:20.224Z,11.61
2018-04-16T03:57:20.713Z,11.65
2018-04-16T03:58:24.106Z,11.62
2018-04-16T03:59:21.291Z,11.64
2018-04-16T04:00:21.070Z,11.67
2018-04-16T04:01:20.360Z,11.67
2018-04-16T04:02:22.520Z,11.73
2018-04-16T04:03:21.885Z,11.67
2018-04-16T04:04:20.113Z,11.72
2018-04-16T04:05:21.386Z,11.67
2018-04-16T04:06:19.966Z,11.60
2018-04-16T04:07:21.564Z,11.64
2018-04-16T04:08:20.450Z,11.70
2018-04-16T04:09:21.758Z,11.67
2018-04-16T04:10:22.224Z,11.70
2018-04-16T04:11:21.463Z,11.75
2018-04-16T04:12:21.443Z,11.69
2018-04-16T04:13:22.075Z,11.64
2018-04-16T04:14:21.935Z,11.76
2018-04-16T04:15:19.943Z,11.58
2018-04-16T04:16:20.474Z,11.62
2018-04-16T04:17:20.503Z,11.57
2018-04-16T04:18:22.844Z,11.55
2018-04-16T04:19:21.085Z,11.54
2018-04-16T04:20:20.896Z,11.54
2018-04-16T04:21:22.588Z,11.57
2018-04-16T04:22:23.429Z,11.54
2018-04-16T04:23:20.846Z,11.60
2018-04-16T04:24:23.600Z,11.60
2018-04-16T04:25:20.881Z,11.65
2018-04-16T04:26:21.495Z,11.55
2018-04-16T04:27:19.923Z,11.60
2018-04-16T04:28:21.895Z,11.60
2018-04-16T04:29:20.505Z,11.58
2018-04-16T04:30:22.036Z,11.64
2018-04-16T04:31:21.999Z,11.57
2018-04-16T04:32:20.874Z,11.60
2018-04-16T04:33:21.041Z,11.54
2018-04-16T04:34:24.206Z,11.61
2018-04-16T04:35:21.293Z,11.58
2018-04-16T04:36:22.068Z,11.55
2018-04-16T04:37:20.499Z,11.69
2018-04-16T04:38:22.205Z,11.65
2018-04-16T04:39:20.494Z,11.55
2018-04-16T04:40:24.173Z,11.54
2018-04-16T04:41:20.695Z,11.60
2018-04-16T04:42:21.686Z,11.57
2018-04-16T04:43:20.914Z,11.64
2018-04-16T04:44:20.649Z,11.61
2018-04-16T04:45:22.973Z,11.64
2018-04-16T04:46:20.432Z,11.55
2018-04-16T04:47:20.299Z,11.58
2018-04-16T04:48:21.426Z,11.67
2018-04-16T04:49:21.357Z,11.64
2018-04-16T04:50:20.916Z,11.61
2018-04-16T04:51:21.643Z,11.64
2018-04-16T04:52:20.152Z,11.69
2018-04-16T04:53:20.795Z,11.65
2018-04-16T04:55:25.412Z,11.61
2018-04-16T04:56:23.093Z,11.57
2018-04-16T04:57:20.423Z,11.58
2018-04-16T04:58:21.239Z,11.60
2018-04-16T04:59:20.391Z,11.58
2018-04-16T05:00:21.073Z,11.62
2018-04-16T05:01:19.681Z,11.60
2018-04-16T05:02:22.092Z,11.58
2018-04-16T05:03:21.179Z,11.69
2018-04-16T05:04:19.333Z,11.57
2018-04-16T05:05:19.307Z,11.69
2018-04-16T05:06:19.429Z,11.54
2018-04-16T05:07:20.099Z,11.61
2018-04-16T05:08:19.352Z,11.60
2018-04-16T05:09:19.337Z,11.60
2018-04-16T05:10:20.917Z,11.57
2018-04-16T05:11:19.351Z,11.70
2018-04-16T05:12:19.600Z,11.69
2018-04-16T05:13:19.335Z,11.60
2018-04-16T05:14:19.379Z,11.51
2018-04-16T05:15:19.596Z,11.58
2018-04-16T05:16:19.382Z,11.57
2018-04-16T05:17:20.245Z,11.57
2018-04-16T05:18:22.340Z,11.64
2018-04-16T05:19:19.351Z,11.65
2018-04-16T05:20:19.502Z,11.55
2018-04-16T05:21:21.056Z,11.54
2018-04-16T05:23:21.483Z,11.62
2018-04-16T05:24:25.341Z,11.67
2018-04-16T05:25:20.754Z,11.73
2018-04-16T05:26:27.589Z,11.67
2018-04-16T05:27:20.527Z,11.78
2018-04-16T05:28:25.996Z,11.78
2018-04-16T05:29:19.380Z,11.86
2018-04-16T05:30:27.957Z,11.85
2018-04-16T05:31:19.389Z,11.94
2018-04-16T05:32:25.474Z,12.04
2018-04-16T05:33:19.407Z,12.09
2018-04-16T05:34:24.772Z,12.14
2018-04-16T05:35:19.446Z,12.32
2018-04-16T05:36:20.797Z,12.57
2018-04-16T05:37:19.663Z,13.04
2018-04-16T05:39:21.134Z,14.65
2018-04-16T05:40:25.250Z,15.53
2018-04-16T05:41:20.312Z,16.27
2018-04-16T05:42:19.621Z,16.81
2018-04-16T05:43:19.470Z,16.89
2018-04-16T05:45:19.410Z,17.79
2018-04-16T05:46:23.980Z,18.15
2018-04-16T05:47:24.065Z,18.42
2018-04-16T05:48:21.060Z,18.70
2018-04-16T05:49:19.518Z,18.95
2018-04-16T05:50:25.721Z,18.63
2018-04-16T05:51:24.606Z,18.18
2018-04-16T05:52:27.816Z,18.42
2018-04-16T05:54:42.119Z,19.32
2018-04-16T05:55:29.016Z,19.50
2018-04-16T05:58:02.671Z,19.98
2018-04-16T05:58:27.516Z,20.02
2018-04-16T05:59:32.434Z,20.16
2018-04-16T06:00:35.275Z,20.54
2018-04-16T06:03:31.042Z,21.12
2018-04-16T06:05:26.222Z,21.16
2018-04-16T06:06:32.609Z,21.53
2018-04-16T06:07:20.181Z,21.35
2018-04-16T06:08:26.909Z,21.32
2018-04-16T06:10:22.543Z,21.69
2018-04-16T06:11:23.078Z,22.14
2018-04-16T06:12:27.754Z,22.24
2018-04-16T06:13:28.515Z,21.88
2018-04-16T06:14:26.474Z,21.80
2018-04-16T06:15:24.071Z,22.10
2018-04-16T06:20:23.053Z,20.72
2018-04-16T06:21:20.345Z,21.47
2018-04-16T06:25:51.811Z,22.86
2018-04-16T06:26:52.613Z,22.97
2018-04-16T06:27:51.798Z,22.98
2018-04-16T06:28:51.777Z,23.04
2018-04-16T06:29:53.623Z,22.18
2018-04-16T06:30:51.783Z,20.54
2018-04-16T06:31:52.622Z,19.61
2018-04-16T06:32:52.619Z,19.08
2018-04-16T06:33:51.815Z,18.78
2018-04-16T06:34:51.931Z,18.37
2018-04-16T06:35:51.822Z,18.88
2018-04-16T06:36:51.849Z,18.70
2018-04-16T06:37:51.858Z,18.25
2018-04-16T06:38:51.844Z,17.97
2018-04-16T06:39:51.848Z,18.17
2018-04-16T06:40:51.860Z,17.93
2018-04-16T06:41:51.869Z,19.22
2018-04-16T06:42:51.947Z,20.82
2018-04-16T06:43:51.865Z,21.75
2018-04-16T06:44:51.856Z,22.97
2018-04-16T06:45:51.876Z,23.72
2018-04-16T06:46:51.928Z,23.90
2018-04-16T06:47:51.947Z,24.27
2018-04-16T06:48:51.888Z,24.18
2018-04-16T06:49:51.898Z,24.84
2018-04-16T06:50:51.909Z,25.13
2018-04-16T06:51:51.924Z,24.90
2018-04-16T06:52:51.920Z,25.39
2018-04-16T06:53:51.930Z,24.90
2018-04-16T06:54:51.931Z,23.36
2018-04-16T06:55:51.951Z,23.35
2018-04-16T06:56:51.941Z,23.84
2018-04-16T06:57:52.633Z,23.36
2018-04-16T06:58:51.973Z,22.83
2018-04-16T06:59:51.980Z,22.82
2018-04-16T07:00:52.097Z,24.24
2018-04-16T07:01:52.004Z,25.50
2018-04-16T07:02:51.995Z,25.57
2018-04-16T07:03:52.004Z,24.64
2018-04-16T07:04:52.023Z,23.83
2018-04-16T07:05:52.006Z,22.86
2018-04-16T07:06:52.020Z,22.97
2018-04-16T07:07:52.024Z,24.05
2018-04-16T07:08:52.051Z,23.27
2018-04-16T07:09:52.058Z,22.86
2018-04-16T07:10:52.050Z,23.69
2018-04-16T07:11:52.098Z,23.09
2018-04-16T07:12:52.717Z,22.94
2018-04-16T07:13:52.140Z,22.14
2018-04-16T07:14:52.116Z,21.71
2018-04-16T07:15:52.160Z,21.40
2018-04-16T07:16:52.129Z,21.03
2018-04-16T07:17:52.118Z,20.51
2018-04-16T07:18:52.106Z,19.94
2018-04-16T07:19:52.115Z,19.55
2018-04-16T07:20:52.214Z,19.41
2018-04-16T07:21:52.130Z,19.16
2018-04-16T07:22:52.151Z,19.00
2018-04-16T07:23:52.166Z,18.84
2018-04-16T07:24:52.165Z,18.70
2018-04-16T07:25:52.344Z,18.65
2018-04-16T07:26:52.175Z,18.69
2018-04-16T07:27:52.276Z,18.72
2018-04-16T07:28:52.289Z,18.52
2018-04-16T07:29:52.200Z,18.57
2018-04-16T07:30:52.206Z,18.36
2018-04-16T07:31:52.235Z,18.32
2018-04-16T07:32:52.219Z,18.30
2018-04-16T07:33:52.214Z,18.32
2018-04-16T07:34:52.231Z,18.23
2018-04-16T07:35:52.330Z,18.27
2018-04-16T07:36:52.250Z,18.57
2018-04-16T07:37:52.238Z,19.81
2018-04-16T07:38:52.248Z,21.22
2018-04-16T07:39:52.249Z,22.73
2018-04-16T07:40:52.261Z,23.46
2018-04-16T07:41:52.294Z,24.16
2018-04-16T07:42:52.264Z,24.73
2018-04-16T07:43:52.304Z,25.27
2018-04-16T07:44:52.298Z,25.36
2018-04-16T07:45:52.313Z,25.21
2018-04-16T07:46:53.160Z,25.08
2018-04-16T07:47:52.358Z,25.80
2018-04-16T07:48:52.404Z,25.08
2018-04-16T07:49:52.337Z,24.81
2018-04-16T07:50:52.367Z,23.16
2018-04-16T07:51:52.329Z,23.13
2018-04-16T07:52:52.359Z,23.22
2018-04-16T07:53:52.468Z,22.94
2018-04-16T07:54:52.521Z,22.98
2018-04-16T07:55:52.416Z,22.61
2018-04-16T07:56:53.166Z,22.94
2018-04-16T07:57:53.395Z,23.10
2018-04-16T07:58:52.531Z,23.69
2018-04-16T07:59:52.429Z,23.79
2018-04-16T08:00:52.638Z,25.06
2018-04-16T08:01:52.412Z,26.06
2018-04-16T08:02:52.447Z,26.39
2018-04-16T08:03:52.522Z,26.50
2018-04-16T08:04:52.534Z,26.66
2018-04-16T08:05:52.509Z,26.55
2018-04-16T08:06:52.529Z,26.36
2018-04-16T08:07:52.476Z,26.20
2018-04-16T08:08:52.546Z,26.88
2018-04-16T08:09:52.663Z,27.24
2018-04-16T08:10:52.518Z,27.69
2018-04-16T08:11:52.515Z,27.81
2018-04-16T08:12:52.556Z,26.75
2018-04-16T08:13:52.604Z,26.37
2018-04-16T08:14:52.569Z,26.55
2018-04-16T08:15:52.596Z,26.25
2018-04-16T08:16:52.590Z,25.27
2018-04-16T08:17:52.614Z,24.28
2018-04-16T08:18:52.710Z,23.22
2018-04-16T08:19:52.785Z,24.30
2018-04-16T08:20:52.646Z,24.10
2018-04-16T08:21:52.666Z,24.58
2018-04-16T08:22:52.652Z,25.32
2018-04-16T08:23:52.661Z,25.85
2018-04-16T08:24:52.729Z,26.26
2018-04-16T08:25:52.762Z,24.47
2018-04-16T08:26:52.707Z,23.95
2018-04-16T08:27:52.763Z,25.08
2018-04-16T08:28:52.705Z,25.54
2018-04-16T08:29:52.731Z,25.65
2018-04-16T08:30:52.756Z,23.93
2018-04-16T08:31:53.262Z,22.75
2018-04-16T08:32:52.771Z,22.10
2018-04-16T08:33:52.786Z,21.98
2018-04-16T08:34:54.291Z,21.34
2018-04-16T08:35:52.809Z,21.17
2018-04-16T08:36:53.206Z,20.73
2018-04-16T08:37:52.871Z,20.54
2018-04-16T08:38:54.435Z,20.29
2018-04-16T08:39:52.858Z,20.73
2018-04-16T08:40:53.456Z,22.85
2018-04-16T08:41:52.893Z,24.52
2018-04-16T08:42:53.301Z,24.47
2018-04-16T08:43:52.961Z,23.73
2018-04-16T08:44:52.959Z,22.80
2018-04-16T08:45:53.201Z,22.58
2018-04-16T08:46:53.078Z,23.19
2018-04-16T08:47:55.802Z,24.57
2018-04-16T08:48:52.987Z,23.63
2018-04-16T08:49:53.670Z,22.76
2018-04-16T08:50:53.085Z,22.80
2018-04-16T08:51:53.337Z,22.91
2018-04-16T08:52:54.497Z,21.84
2018-04-16T08:54:53.023Z,21.84
2018-04-16T08:55:53.067Z,22.98
2018-04-16T08:56:53.042Z,23.01
2018-04-16T08:57:53.215Z,22.31
2018-04-16T08:58:53.050Z,21.74
2018-04-16T08:59:53.062Z,22.64
2018-04-16T09:00:53.113Z,23.58
2018-04-16T09:01:53.508Z,23.91
2018-04-16T09:02:53.085Z,24.28
2018-04-16T09:03:53.120Z,23.10
2018-04-16T09:04:53.108Z,22.98
2018-04-16T09:05:53.117Z,22.58
2018-04-16T09:06:53.138Z,22.25
2018-04-16T09:07:53.151Z,21.80
2018-04-16T09:08:53.167Z,21.38
2018-04-16T09:09:53.175Z,21.24
2018-04-16T09:10:53.179Z,21.21
2018-04-16T09:11:53.203Z,20.95
2018-04-16T09:12:53.813Z,20.99
2018-04-16T09:13:53.202Z,22.07
2018-04-16T09:14:53.225Z,21.90
2018-04-16T09:15:53.784Z,22.37
2018-04-16T09:16:53.243Z,22.02
2018-04-16T09:17:53.232Z,21.98
2018-04-16T09:18:53.255Z,22.80
2018-04-16T09:19:53.260Z,22.20
2018-04-16T09:20:53.400Z,22.14
2018-04-16T09:21:53.282Z,22.58
2018-04-16T09:22:53.336Z,22.90
2018-04-16T09:23:53.342Z,23.10
2018-04-16T09:24:53.343Z,22.57
2018-04-16T09:25:53.408Z,22.47
2018-04-16T09:26:53.345Z,22.97
2018-04-16T09:27:53.344Z,23.09
2018-04-16T09:28:53.923Z,22.90
2018-04-16T09:29:53.400Z,22.07
2018-04-16T09:30:53.382Z,21.43
2018-04-16T09:31:53.485Z,21.28
2018-04-16T09:32:53.427Z,20.89
2018-04-16T09:33:54.322Z,21.28
2018-04-16T09:34:53.403Z,21.04
2018-04-16T09:35:53.410Z,21.14
2018-04-16T09:36:53.479Z,21.13
2018-04-16T09:37:53.476Z,21.86
2018-04-16T09:38:54.339Z,21.98
2018-04-16T09:39:53.462Z,22.37
2018-04-16T09:40:53.477Z,22.91
2018-04-16T09:41:54.321Z,23.13
2018-04-16T09:42:53.510Z,23.42
2018-04-16T09:43:53.520Z,23.58
2018-04-16T09:44:53.498Z,23.33
2018-04-16T09:45:53.511Z,22.36
2018-04-16T09:46:53.525Z,22.09
2018-04-16T09:47:53.540Z,22.14
2018-04-16T09:48:53.531Z,22.52
2018-04-16T09:49:53.546Z,22.85
2018-04-16T09:50:53.603Z,23.58
2018-04-16T09:51:53.576Z,24.34
2018-04-16T09:52:53.593Z,24.87
2018-04-16T09:53:53.594Z,24.49
2018-04-16T09:54:54.346Z,24.09
2018-04-16T09:55:53.627Z,23.75
2018-04-16T09:56:53.636Z,23.51
2018-04-16T09:57:53.677Z,23.55
2018-04-16T09:58:53.643Z,23.53
2018-04-16T09:59:53.687Z,23.79
2018-04-16T10:00:53.728Z,24.22
2018-04-16T10:01:53.672Z,24.39
2018-04-16T10:02:53.739Z,24.77
2018-04-16T10:03:53.797Z,24.35
2018-04-16T10:04:53.737Z,24.16
2018-04-16T10:05:53.717Z,24.46
2018-04-16T10:06:54.338Z,24.81
2018-04-16T10:07:53.736Z,25.91
2018-04-16T10:08:53.764Z,26.43
2018-04-16T10:09:53.875Z,27.10
2018-04-16T10:10:53.809Z,27.22
2018-04-16T10:11:53.799Z,27.25
2018-04-16T10:12:53.869Z,26.81
2018-04-16T10:13:53.824Z,26.87
2018-04-16T10:14:53.815Z,26.85
2018-04-16T10:15:53.832Z,27.21
2018-04-16T10:16:53.872Z,28.19
2018-04-16T10:17:53.875Z,28.52
2018-04-16T10:18:53.915Z,29.21
2018-04-16T10:19:53.956Z,27.14
2018-04-16T10:20:53.941Z,25.45
2018-04-16T10:21:53.954Z,24.65
2018-04-16T10:22:54.684Z,25.18
2018-04-16T10:23:53.986Z,25.24
2018-04-16T10:24:53.973Z,24.65
2018-04-16T10:25:54.053Z,25.15
2018-04-16T10:26:55.364Z,24.43
2018-04-16T10:27:54.031Z,24.24
2018-04-16T10:28:54.097Z,24.37
2018-04-16T10:29:54.076Z,24.28
2018-04-16T10:30:54.256Z,24.67
2018-04-16T10:31:54.085Z,25.65
2018-04-16T10:32:54.117Z,25.23
2018-04-16T10:33:54.154Z,24.98
2018-04-16T10:34:54.161Z,24.62
2018-04-16T10:35:54.167Z,25.47
2018-04-16T10:36:54.169Z,26.35
2018-04-16T10:37:54.245Z,26.99
2018-04-16T10:38:54.200Z,25.28
2018-04-16T10:39:54.255Z,24.32
2018-04-16T10:40:54.235Z,25.42
2018-04-16T10:41:54.864Z,26.01
2018-04-16T10:42:54.454Z,26.45
2018-04-16T10:43:54.268Z,26.09
2018-04-16T10:44:54.310Z,25.87
2018-04-16T10:45:54.333Z,25.70
2018-04-16T10:46:54.351Z,25.94
2018-04-16T10:47:54.370Z,25.64
2018-04-16T10:48:54.355Z,25.85
2018-04-16T10:49:54.370Z,25.09
2018-04-16T10:50:54.395Z,24.55
2018-04-16T10:51:54.428Z,23.66
2018-04-16T10:52:54.419Z,23.13
2018-04-16T10:53:54.467Z,23.05
2018-04-16T10:54:54.450Z,23.42
2018-04-16T10:55:54.464Z,23.32
2018-04-16T10:56:54.509Z,22.77
2018-04-16T10:57:54.709Z,22.86
2018-04-16T10:58:54.527Z,23.19
2018-04-16T10:59:54.521Z,23.00
2018-04-16T11:00:54.609Z,22.77
2018-04-16T11:01:54.685Z,22.62
2018-04-16T11:02:54.574Z,22.58
2018-04-16T11:03:54.595Z,22.27
2018-04-16T11:04:54.589Z,21.86
2018-04-16T11:05:54.601Z,22.12
2018-04-16T11:06:54.613Z,23.10
2018-04-16T11:07:54.628Z,23.69
2018-04-16T11:08:54.644Z,24.32
2018-04-16T11:09:54.644Z,24.40
2018-04-16T11:10:54.737Z,24.60
2018-04-16T11:11:55.378Z,24.42
2018-04-16T11:12:54.787Z,23.36
2018-04-16T11:13:54.729Z,22.77
2018-04-16T11:14:54.717Z,22.68
2018-04-16T11:15:54.730Z,23.20
2018-04-16T11:16:54.745Z,22.82
2018-04-16T11:17:54.761Z,22.54
2018-04-16T11:18:54.796Z,22.36
2018-04-16T11:19:54.867Z,22.21
2018-04-16T11:20:54.826Z,22.24
2018-04-16T11:21:55.409Z,22.05
2018-04-16T11:22:54.809Z,22.00
2018-04-16T11:23:54.815Z,21.98
2018-04-16T11:24:54.837Z,21.88
2018-04-16T11:25:54.819Z,22.14
2018-04-16T11:26:54.858Z,22.36
2018-04-16T11:27:54.835Z,22.51
2018-04-16T11:28:54.866Z,22.33
2018-04-16T11:29:54.857Z,22.18
2018-04-16T11:30:54.879Z,21.90
2018-04-16T11:31:54.896Z,21.49
2018-04-16T11:32:55.084Z,21.43
2018-04-16T11:33:55.054Z,21.24
2018-04-16T11:34:54.907Z,21.46
2018-04-16T11:35:54.908Z,21.69
2018-04-16T11:36:54.917Z,21.50
2018-04-16T11:37:55.023Z,21.69
2018-04-16T11:38:54.924Z,21.84
2018-04-16T11:39:55.015Z,22.31
2018-04-16T11:40:55.897Z,22.07
2018-04-16T11:41:54.975Z,22.39
2018-04-16T11:42:55.896Z,22.43
2018-04-16T11:43:55.025Z,22.17
2018-04-16T11:44:55.910Z,22.06
2018-04-16T11:45:55.069Z,22.36
2018-04-16T11:46:55.002Z,22.46
2018-04-16T11:47:55.035Z,22.60
2018-04-16T11:48:55.064Z,22.75
2018-04-16T11:49:55.051Z,22.94
2018-04-16T11:50:55.904Z,23.15
2018-04-16T11:51:55.035Z,23.10
2018-04-16T11:52:55.063Z,23.22
2018-04-16T11:53:55.060Z,23.27
2018-04-16T11:54:55.075Z,23.04
2018-04-16T11:55:55.107Z,23.23
2018-04-16T11:56:55.096Z,23.19
2018-04-16T11:57:55.090Z,22.62
2018-04-16T11:58:55.099Z,22.61
2018-04-16T11:59:55.133Z,22.57
2018-04-16T12:00:55.299Z,22.37
2018-04-16T12:01:55.171Z,22.20
2018-04-16T12:02:55.150Z,21.79
2018-04-16T12:03:55.140Z,21.79
2018-04-16T12:04:55.135Z,22.17
2018-04-16T12:05:55.170Z,22.39
2018-04-16T12:06:55.164Z,22.35
2018-04-16T12:07:55.229Z,22.68
2018-04-16T12:08:55.193Z,22.65
2018-04-16T12:09:55.229Z,22.58
2018-04-16T12:10:55.294Z,22.27
2018-04-16T12:11:55.228Z,22.21
2018-04-16T12:12:55.217Z,22.31
2018-04-16T12:13:55.231Z,22.49
2018-04-16T12:14:55.241Z,22.61
2018-04-16T12:15:55.238Z,22.14
2018-04-16T12:16:55.222Z,22.03
2018-04-16T12:17:55.238Z,22.17
2018-04-16T12:18:55.250Z,22.35
2018-04-16T12:19:55.254Z,22.55
2018-04-16T12:20:55.319Z,22.64
2018-04-16T12:21:55.335Z,23.00
2018-04-16T12:22:55.274Z,23.01
2018-04-16T12:23:55.359Z,22.95
2018-04-16T12:24:55.323Z,22.90
2018-04-16T12:25:55.301Z,23.01
2018-04-16T12:26:55.373Z,23.02
2018-04-16T12:27:55.310Z,23.00
2018-04-16T12:28:55.313Z,23.09
2018-04-16T12:29:55.365Z,23.20
2018-04-16T12:30:55.333Z,23.13
2018-04-16T12:31:55.378Z,23.07
2018-04-16T12:32:55.335Z,23.05
2018-04-16T12:33:55.461Z,23.01
2018-04-16T12:34:55.362Z,23.16
2018-04-16T12:35:55.383Z,23.25
2018-04-16T12:36:55.369Z,22.91
2018-04-16T12:37:55.442Z,22.94
2018-04-16T12:38:55.927Z,22.55
2018-04-16T12:39:55.382Z,22.35
2018-04-16T12:40:55.393Z,22.20
2018-04-16T12:41:55.442Z,22.03
2018-04-16T12:42:55.432Z,22.02
2018-04-16T12:43:55.936Z,21.72
2018-04-16T12:44:55.444Z,21.80
2018-04-16T12:45:55.425Z,21.83
2018-04-16T12:46:55.537Z,22.06
2018-04-16T12:47:55.442Z,22.06
2018-04-16T12:48:55.483Z,22.27
2018-04-16T12:49:55.483Z,22.18
2018-04-16T12:50:55.507Z,22.24
2018-04-16T12:51:55.482Z,22.47
2018-04-16T12:52:55.522Z,22.47
2018-04-16T12:53:55.482Z,22.40
2018-04-16T12:54:55.503Z,22.60
2018-04-16T12:55:55.505Z,22.45
2018-04-16T12:56:55.594Z,22.64
2018-04-16T12:57:55.540Z,22.70
2018-04-16T12:58:55.515Z,22.79
2018-04-16T12:59:55.525Z,22.73
2018-04-16T13:00:55.567Z,22.77
2018-04-16T13:01:55.595Z,22.64
2018-04-16T13:02:55.540Z,22.45
2018-04-16T13:03:55.582Z,22.40
2018-04-16T13:04:55.563Z,22.18
2018-04-16T13:05:55.562Z,21.91
2018-04-16T13:06:55.597Z,21.77
2018-04-16T13:07:55.599Z,21.91
2018-04-16T13:08:55.583Z,22.12
2018-04-16T13:09:56.438Z,22.39
2018-04-16T13:10:55.641Z,22.64
2018-04-16T13:11:55.660Z,22.70
2018-04-16T13:12:55.632Z,22.95
2018-04-16T13:13:55.621Z,22.98
2018-04-16T13:14:55.626Z,22.85
2018-04-16T13:15:55.625Z,22.62
2018-04-16T13:16:55.672Z,22.06
2018-04-16T13:17:55.692Z,21.86